DLH83U LEBL-EDDM
Flight info
| Callsign | DLH83U |
|---|---|
| Flight time | 1h 34m |
| Altitude | 30000 |
| Route | DALIN DCT PIVUS DCT DIBER/N0424F360 DCT ADITA DCT MAXIR DCT LUSOL DCT BODRU DCT OKTET DCT IRMAR DCT KINES DCT VANAS DCT MOBLO DCT LAMUR DCT KORED/N0420F350 DCT NUNRI/N0427F370 T103 BETOS BETOS1B |
| Aircraft | A320/M-SDE2E3FGIJ1LORWXYZ/HB1 |
Departure
| Time | 2026-05-05 11:04 |
|---|---|
| Airport | Josep Tarradellas Barcelona-El Prat Airport (LEBL) |
Arrival
| Time | 2026-05-05 12:38 |
|---|---|
| Airport | Munich Airport (EDDM) |
| Time | Latitude | Longitude | Altitude | Speed | Heading |
|---|---|---|---|---|---|
| 2026-05-05 10:16 | 41.28765 | 2.08004 | 17 ft | 0 kts | 100° |
| 2026-05-05 10:57 | 41.28764 | 2.08015 | 17 ft | 7 kts | 100° |
| 2026-05-05 10:57 | 41.28752 | 2.08090 | 16 ft | 13 kts | 100° |
| 2026-05-05 10:57 | 41.28749 | 2.08203 | 15 ft | 10 kts | 105° |
| 2026-05-05 10:57 | 41.28717 | 2.08269 | 17 ft | 11 kts | 97° |
| 2026-05-05 10:58 | 41.28757 | 2.08423 | 17 ft | 20 kts | 65° |
| 2026-05-05 10:58 | 41.28815 | 2.08592 | 17 ft | 21 kts | 65° |
| 2026-05-05 10:58 | 41.28879 | 2.08779 | 19 ft | 23 kts | 65° |
| 2026-05-05 10:58 | 41.28936 | 2.08943 | 18 ft | 19 kts | 65° |
| 2026-05-05 10:59 | 41.28988 | 2.09094 | 17 ft | 17 kts | 65° |
| 2026-05-05 10:59 | 41.29038 | 2.09243 | 18 ft | 19 kts | 66° |
| 2026-05-05 10:59 | 41.29101 | 2.09430 | 17 ft | 26 kts | 65° |
| 2026-05-05 10:59 | 41.29175 | 2.09645 | 17 ft | 13 kts | 66° |
| 2026-05-05 11:00 | 41.29212 | 2.09754 | 18 ft | 14 kts | 65° |
| 2026-05-05 11:00 | 41.29256 | 2.09880 | 17 ft | 12 kts | 65° |
| 2026-05-05 11:00 | 41.29284 | 2.09968 | 18 ft | 9 kts | 68° |
| 2026-05-05 11:00 | 41.29268 | 2.10044 | 16 ft | 8 kts | 116° |
| 2026-05-05 11:01 | 41.29264 | 2.10060 | 15 ft | 0 kts | 111° |
| 2026-05-05 11:01 | 41.29263 | 2.10060 | 15 ft | 0 kts | 111° |
| 2026-05-05 11:01 | 41.29254 | 2.10093 | 15 ft | 9 kts | 111° |
| 2026-05-05 11:02 | 41.29237 | 2.10190 | 15 ft | 11 kts | 81° |
| 2026-05-05 11:02 | 41.29234 | 2.10283 | 14 ft | 10 kts | 143° |
| 2026-05-05 11:02 | 41.29196 | 2.10253 | 16 ft | 6 kts | 244° |
| 2026-05-05 11:02 | 41.29184 | 2.10218 | 18 ft | 3 kts | 245° |
| 2026-05-05 11:03 | 41.29183 | 2.10217 | 18 ft | 0 kts | 245° |
| 2026-05-05 11:03 | 41.29183 | 2.10216 | 17 ft | 2 kts | 245° |
| 2026-05-05 11:03 | 41.29090 | 2.09943 | 19 ft | 72 kts | 245° |
| 2026-05-05 11:03 | 41.28783 | 2.09047 | 19 ft | 138 kts | 245° |
| 2026-05-05 11:04 | 41.28333 | 2.07720 | 279 ft | 162 kts | 247° |
| 2026-05-05 11:04 | 41.27746 | 2.06461 | 1036 ft | 163 kts | 216° |
| 2026-05-05 11:04 | 41.26647 | 2.06007 | 1607 ft | 178 kts | 187° |
| 2026-05-05 11:04 | 41.25332 | 2.05945 | 1966 ft | 201 kts | 183° |
| 2026-05-05 11:05 | 41.23866 | 2.05937 | 2480 ft | 217 kts | 182° |
| 2026-05-05 11:05 | 41.22341 | 2.05911 | 3329 ft | 219 kts | 184° |
| 2026-05-05 11:05 | 41.21022 | 2.05877 | 4015 ft | 226 kts | 180° |
| 2026-05-05 11:05 | 41.19428 | 2.06410 | 4450 ft | 254 kts | 148° |
| 2026-05-05 11:06 | 41.18283 | 2.08263 | 5091 ft | 272 kts | 112° |
| 2026-05-05 11:06 | 41.18140 | 2.10745 | 5983 ft | 282 kts | 78° |
| 2026-05-05 11:06 | 41.18900 | 2.13164 | 6912 ft | 288 kts | 63° |
| 2026-05-05 11:06 | 41.19919 | 2.15487 | 7781 ft | 293 kts | 59° |
| 2026-05-05 11:07 | 41.21033 | 2.17790 | 8621 ft | 300 kts | 57° |
| 2026-05-05 11:07 | 41.22180 | 2.20129 | 9462 ft | 306 kts | 58° |
| 2026-05-05 11:07 | 41.23337 | 2.22536 | 10187 ft | 315 kts | 58° |
| 2026-05-05 11:07 | 41.24497 | 2.25010 | 10489 ft | 338 kts | 59° |
| 2026-05-05 11:08 | 41.25746 | 2.27739 | 11011 ft | 351 kts | 59° |
| 2026-05-05 11:08 | 41.27013 | 2.30545 | 11717 ft | 357 kts | 60° |
| 2026-05-05 11:08 | 41.28291 | 2.33400 | 12466 ft | 362 kts | 60° |
| 2026-05-05 11:08 | 41.29588 | 2.36306 | 13200 ft | 368 kts | 60° |
| 2026-05-05 11:09 | 41.30901 | 2.39252 | 13898 ft | 373 kts | 60° |
| 2026-05-05 11:09 | 41.32236 | 2.42247 | 14536 ft | 379 kts | 60° |
| 2026-05-05 11:09 | 41.33585 | 2.45282 | 15176 ft | 384 kts | 60° |
| 2026-05-05 11:09 | 41.34676 | 2.47741 | 15685 ft | 388 kts | 60° |
| 2026-05-05 11:10 | 41.36030 | 2.50786 | 16283 ft | 393 kts | 60° |
| 2026-05-05 11:10 | 41.37437 | 2.53946 | 16896 ft | 399 kts | 60° |
| 2026-05-05 11:10 | 41.38864 | 2.57146 | 17494 ft | 404 kts | 60° |
| 2026-05-05 11:10 | 41.40309 | 2.60388 | 18093 ft | 410 kts | 60° |
| 2026-05-05 11:11 | 41.41773 | 2.63672 | 18629 ft | 415 kts | 60° |
| 2026-05-05 11:11 | 41.43254 | 2.67004 | 19140 ft | 420 kts | 60° |
| 2026-05-05 11:11 | 41.44747 | 2.70372 | 19648 ft | 425 kts | 60° |
| 2026-05-05 11:11 | 41.46110 | 2.73450 | 20117 ft | 429 kts | 60° |
| 2026-05-05 11:12 | 41.47633 | 2.76901 | 20629 ft | 435 kts | 60° |
| 2026-05-05 11:12 | 41.49173 | 2.80398 | 21127 ft | 439 kts | 60° |
| 2026-05-05 11:12 | 41.50729 | 2.83931 | 21647 ft | 444 kts | 60° |
| 2026-05-05 11:12 | 41.52302 | 2.87506 | 22154 ft | 449 kts | 60° |
| 2026-05-05 11:13 | 41.53894 | 2.91122 | 22734 ft | 453 kts | 60° |
| 2026-05-05 11:13 | 41.55498 | 2.94771 | 23256 ft | 458 kts | 60° |
| 2026-05-05 11:13 | 41.57094 | 2.98415 | 23712 ft | 462 kts | 60° |
| 2026-05-05 11:13 | 41.58722 | 3.02139 | 24136 ft | 466 kts | 60° |
| 2026-05-05 11:14 | 41.60362 | 3.05893 | 24536 ft | 470 kts | 60° |
| 2026-05-05 11:14 | 41.62013 | 3.09677 | 24946 ft | 473 kts | 60° |
| 2026-05-05 11:14 | 41.63676 | 3.13492 | 25374 ft | 476 kts | 60° |
| 2026-05-05 11:14 | 41.65350 | 3.17329 | 25787 ft | 479 kts | 60° |
| 2026-05-05 11:15 | 41.67010 | 3.21133 | 26188 ft | 482 kts | 60° |
| 2026-05-05 11:15 | 41.68702 | 3.25019 | 26588 ft | 485 kts | 60° |
| 2026-05-05 11:15 | 41.70403 | 3.28935 | 26980 ft | 488 kts | 60° |
| 2026-05-05 11:15 | 41.72111 | 3.32872 | 27367 ft | 491 kts | 60° |
| 2026-05-05 11:16 | 41.73744 | 3.36891 | 27775 ft | 492 kts | 66° |
| 2026-05-05 11:16 | 41.75149 | 3.41083 | 28155 ft | 495 kts | 67° |
| 2026-05-05 11:16 | 41.76552 | 3.45305 | 28529 ft | 497 kts | 67° |
| 2026-05-05 11:16 | 41.77960 | 3.49551 | 28889 ft | 500 kts | 67° |
| 2026-05-05 11:17 | 41.79375 | 3.53821 | 29247 ft | 503 kts | 67° |
| 2026-05-05 11:17 | 41.80795 | 3.58115 | 29590 ft | 505 kts | 67° |
| 2026-05-05 11:17 | 41.82223 | 3.62438 | 29925 ft | 508 kts | 67° |
| 2026-05-05 11:17 | 41.83655 | 3.66781 | 30219 ft | 511 kts | 67° |
| 2026-05-05 11:18 | 41.85095 | 3.71142 | 30498 ft | 513 kts | 67° |
| 2026-05-05 11:18 | 41.86539 | 3.75522 | 30778 ft | 514 kts | 67° |
| 2026-05-05 11:18 | 41.87986 | 3.79915 | 31050 ft | 516 kts | 68° |
| 2026-05-05 11:18 | 41.89439 | 3.84334 | 31303 ft | 518 kts | 67° |
| 2026-05-05 11:19 | 41.90890 | 3.88766 | 31575 ft | 519 kts | 68° |
| 2026-05-05 11:19 | 41.92336 | 3.93198 | 31992 ft | 518 kts | 68° |
| 2026-05-05 11:19 | 41.93778 | 3.97622 | 32402 ft | 516 kts | 68° |
| 2026-05-05 11:19 | 41.95213 | 4.02033 | 32784 ft | 515 kts | 68° |
| 2026-05-05 11:20 | 41.96643 | 4.06438 | 33152 ft | 514 kts | 68° |
| 2026-05-05 11:20 | 41.98071 | 4.10837 | 33522 ft | 513 kts | 68° |
| 2026-05-05 11:20 | 41.99496 | 4.15233 | 33906 ft | 512 kts | 68° |
| 2026-05-05 11:20 | 42.00915 | 4.19620 | 34212 ft | 511 kts | 68° |
| 2026-05-05 11:21 | 42.02332 | 4.23999 | 34517 ft | 510 kts | 68° |
| 2026-05-05 11:21 | 42.03747 | 4.28373 | 34814 ft | 510 kts | 68° |
| 2026-05-05 11:21 | 42.05159 | 4.32746 | 35102 ft | 509 kts | 68° |
| 2026-05-05 11:21 | 42.06637 | 4.37069 | 35395 ft | 509 kts | 62° |
| 2026-05-05 11:22 | 42.08504 | 4.41108 | 35667 ft | 508 kts | 53° |
| 2026-05-05 11:22 | 42.10773 | 4.44743 | 35890 ft | 507 kts | 44° |
| 2026-05-05 11:22 | 42.13343 | 4.47953 | 35973 ft | 500 kts | 39° |
| 2026-05-05 11:23 | 42.18507 | 4.54143 | 35969 ft | 495 kts | 39° |
| 2026-05-05 11:23 | 42.23638 | 4.60328 | 35971 ft | 495 kts | 40° |
| 2026-05-05 11:24 | 42.28761 | 4.66535 | 35967 ft | 495 kts | 40° |
| 2026-05-05 11:24 | 42.33886 | 4.72744 | 35973 ft | 494 kts | 40° |
| 2026-05-05 11:25 | 42.38967 | 4.78911 | 35975 ft | 494 kts | 40° |
| 2026-05-05 11:25 | 42.44078 | 4.85129 | 35972 ft | 494 kts | 40° |
| 2026-05-05 11:26 | 42.49180 | 4.91362 | 35967 ft | 494 kts | 40° |
| 2026-05-05 11:26 | 42.54277 | 4.97606 | 35966 ft | 493 kts | 40° |
| 2026-05-05 11:27 | 42.59367 | 5.03841 | 35972 ft | 493 kts | 40° |
| 2026-05-05 11:27 | 42.64448 | 5.10081 | 35974 ft | 492 kts | 40° |
| 2026-05-05 11:28 | 42.69519 | 5.16328 | 35975 ft | 492 kts | 40° |
| 2026-05-05 11:28 | 42.74593 | 5.22585 | 35970 ft | 492 kts | 40° |
| 2026-05-05 11:29 | 42.79658 | 5.28843 | 35972 ft | 492 kts | 40° |
| 2026-05-05 11:29 | 42.84715 | 5.35118 | 35942 ft | 492 kts | 40° |
| 2026-05-05 11:30 | 42.89764 | 5.41393 | 35977 ft | 491 kts | 41° |
| 2026-05-05 11:30 | 42.94810 | 5.47676 | 35980 ft | 491 kts | 41° |
| 2026-05-05 11:31 | 42.99843 | 5.53970 | 35980 ft | 490 kts | 41° |
| 2026-05-05 11:31 | 43.04867 | 5.60265 | 35977 ft | 490 kts | 41° |
| 2026-05-05 11:32 | 43.09889 | 5.66556 | 35992 ft | 489 kts | 41° |
| 2026-05-05 11:32 | 43.14905 | 5.72860 | 35956 ft | 489 kts | 41° |
| 2026-05-05 11:33 | 43.19759 | 5.78976 | 35964 ft | 488 kts | 41° |
| 2026-05-05 11:33 | 43.24749 | 5.85284 | 35967 ft | 488 kts | 41° |
| 2026-05-05 11:34 | 43.29731 | 5.91593 | 35989 ft | 488 kts | 41° |
| 2026-05-05 11:34 | 43.34739 | 5.97889 | 35974 ft | 487 kts | 37° |
| 2026-05-05 11:35 | 43.40146 | 6.02453 | 35959 ft | 480 kts | 19° |
| 2026-05-05 11:35 | 43.46456 | 6.04738 | 35936 ft | 467 kts | 360° |
| 2026-05-05 11:36 | 43.52444 | 6.05348 | 35940 ft | 466 kts | 358° |
| 2026-05-05 11:36 | 43.58855 | 6.05992 | 35935 ft | 468 kts | 358° |
| 2026-05-05 11:37 | 43.65231 | 6.06644 | 35937 ft | 468 kts | 358° |
| 2026-05-05 11:37 | 43.71342 | 6.07274 | 35944 ft | 469 kts | 358° |
| 2026-05-05 11:38 | 43.77816 | 6.08713 | 35943 ft | 479 kts | 13° |
| 2026-05-05 11:38 | 43.83577 | 6.12237 | 35931 ft | 483 kts | 23° |
| 2026-05-05 11:39 | 43.89194 | 6.16088 | 35948 ft | 483 kts | 23° |
| 2026-05-05 11:39 | 43.94992 | 6.20032 | 35937 ft | 483 kts | 22° |
| 2026-05-05 11:40 | 44.00925 | 6.24067 | 35929 ft | 484 kts | 22° |
| 2026-05-05 11:40 | 44.06920 | 6.28174 | 35960 ft | 485 kts | 23° |
| 2026-05-05 11:41 | 44.12972 | 6.32340 | 35937 ft | 486 kts | 23° |
| 2026-05-05 11:41 | 44.18937 | 6.36448 | 35934 ft | 486 kts | 23° |
| 2026-05-05 11:42 | 44.23961 | 6.39908 | 35941 ft | 487 kts | 23° |
| 2026-05-05 11:42 | 44.29746 | 6.43909 | 35953 ft | 488 kts | 23° |
| 2026-05-05 11:43 | 44.35604 | 6.47976 | 35917 ft | 488 kts | 23° |
| 2026-05-05 11:43 | 44.41533 | 6.52108 | 35956 ft | 487 kts | 23° |
| 2026-05-05 11:44 | 44.47599 | 6.56319 | 35969 ft | 486 kts | 23° |
| 2026-05-05 11:44 | 44.53545 | 6.60456 | 35968 ft | 486 kts | 24° |
| 2026-05-05 11:45 | 44.59579 | 6.64681 | 35967 ft | 485 kts | 24° |
| 2026-05-05 11:45 | 44.65538 | 6.68872 | 35967 ft | 485 kts | 24° |
| 2026-05-05 11:46 | 44.71461 | 6.73041 | 35961 ft | 485 kts | 24° |
| 2026-05-05 11:46 | 44.77398 | 6.76917 | 35959 ft | 481 kts | 14° |
| 2026-05-05 11:47 | 44.83872 | 6.78660 | 35967 ft | 469 kts | 356° |
| 2026-05-05 11:47 | 44.90205 | 6.78366 | 35960 ft | 465 kts | 351° |
| 2026-05-05 11:48 | 44.99732 | 6.77745 | 35967 ft | 465 kts | 351° |
| 2026-05-05 11:48 | 45.06210 | 6.77325 | 35967 ft | 466 kts | 352° |
| 2026-05-05 11:49 | 45.12427 | 6.76918 | 35978 ft | 467 kts | 352° |
| 2026-05-05 11:49 | 45.18907 | 6.76488 | 35991 ft | 466 kts | 352° |
| 2026-05-05 11:50 | 45.25309 | 6.76057 | 35969 ft | 467 kts | 352° |
| 2026-05-05 11:50 | 45.31561 | 6.75643 | 35959 ft | 467 kts | 352° |
| 2026-05-05 11:51 | 45.37955 | 6.75222 | 35956 ft | 466 kts | 352° |
| 2026-05-05 11:51 | 45.44366 | 6.74781 | 35958 ft | 467 kts | 352° |
| 2026-05-05 11:52 | 45.50641 | 6.74361 | 35958 ft | 467 kts | 352° |
| 2026-05-05 11:52 | 45.57104 | 6.73920 | 35948 ft | 465 kts | 352° |
| 2026-05-05 11:53 | 45.63413 | 6.73489 | 35968 ft | 466 kts | 352° |
| 2026-05-05 11:53 | 45.69440 | 6.73076 | 35953 ft | 467 kts | 352° |
| 2026-05-05 11:54 | 45.75904 | 6.72641 | 35959 ft | 466 kts | 353° |
| 2026-05-05 11:54 | 45.81951 | 6.73473 | 35967 ft | 474 kts | 11° |
| 2026-05-05 11:55 | 45.88078 | 6.76903 | 35957 ft | 477 kts | 22° |
| 2026-05-05 11:55 | 45.94156 | 6.80888 | 35946 ft | 477 kts | 22° |
| 2026-05-05 11:56 | 45.99987 | 6.84689 | 35942 ft | 477 kts | 22° |
| 2026-05-05 11:56 | 46.05983 | 6.88617 | 35929 ft | 475 kts | 22° |
| 2026-05-05 11:57 | 46.11999 | 6.92573 | 35908 ft | 475 kts | 22° |
| 2026-05-05 11:57 | 46.17653 | 6.96301 | 35892 ft | 474 kts | 23° |
| 2026-05-05 11:58 | 46.23643 | 7.00268 | 35899 ft | 473 kts | 23° |
| 2026-05-05 11:58 | 46.29488 | 7.04146 | 35900 ft | 472 kts | 23° |
| 2026-05-05 11:59 | 46.35361 | 7.08047 | 35896 ft | 471 kts | 24° |
| 2026-05-05 11:59 | 46.41309 | 7.12007 | 35919 ft | 469 kts | 23° |
| 2026-05-05 12:00 | 46.47239 | 7.15954 | 35910 ft | 468 kts | 23° |
| 2026-05-05 12:00 | 46.52517 | 7.19476 | 35904 ft | 468 kts | 24° |
| 2026-05-05 12:01 | 46.58422 | 7.23434 | 35896 ft | 468 kts | 24° |
| 2026-05-05 12:01 | 46.64157 | 7.27293 | 35888 ft | 468 kts | 24° |
| 2026-05-05 12:02 | 46.69947 | 7.31206 | 35885 ft | 468 kts | 24° |
| 2026-05-05 12:02 | 46.75847 | 7.35190 | 35868 ft | 467 kts | 24° |
| 2026-05-05 12:03 | 46.81615 | 7.39528 | 35875 ft | 467 kts | 35° |
| 2026-05-05 12:03 | 46.85839 | 7.45268 | 35877 ft | 464 kts | 53° |
| 2026-05-05 12:04 | 46.89163 | 7.53439 | 35860 ft | 461 kts | 65° |
| 2026-05-05 12:04 | 46.92027 | 7.61816 | 35861 ft | 462 kts | 66° |
| 2026-05-05 12:05 | 46.94882 | 7.70215 | 35878 ft | 460 kts | 66° |
| 2026-05-05 12:05 | 46.97730 | 7.78604 | 35878 ft | 459 kts | 66° |
| 2026-05-05 12:06 | 47.00544 | 7.86920 | 35882 ft | 459 kts | 66° |
| 2026-05-05 12:06 | 47.03016 | 7.94258 | 35887 ft | 459 kts | 66° |
| 2026-05-05 12:07 | 47.05830 | 8.02650 | 35888 ft | 458 kts | 66° |
| 2026-05-05 12:07 | 47.08522 | 8.10667 | 35891 ft | 458 kts | 66° |
| 2026-05-05 12:08 | 47.11210 | 8.18709 | 35896 ft | 458 kts | 66° |
| 2026-05-05 12:08 | 47.13996 | 8.27097 | 35871 ft | 457 kts | 66° |
| 2026-05-05 12:09 | 47.16752 | 8.35422 | 35877 ft | 457 kts | 66° |
| 2026-05-05 12:09 | 47.19458 | 8.43609 | 35880 ft | 457 kts | 66° |
| 2026-05-05 12:10 | 47.22202 | 8.51932 | 35888 ft | 457 kts | 67° |
| 2026-05-05 12:10 | 47.24968 | 8.60344 | 35888 ft | 457 kts | 67° |
| 2026-05-05 12:11 | 47.27707 | 8.68700 | 35894 ft | 457 kts | 67° |
| 2026-05-05 12:11 | 47.30311 | 8.76694 | 35874 ft | 457 kts | 67° |
| 2026-05-05 12:12 | 47.33037 | 8.85094 | 35882 ft | 456 kts | 67° |
| 2026-05-05 12:12 | 47.35690 | 8.93260 | 35885 ft | 456 kts | 67° |
| 2026-05-05 12:13 | 47.38351 | 9.01481 | 35890 ft | 456 kts | 67° |
| 2026-05-05 12:13 | 47.40781 | 9.09045 | 35886 ft | 456 kts | 67° |
| 2026-05-05 12:14 | 47.43483 | 9.17461 | 35884 ft | 456 kts | 67° |
| 2026-05-05 12:14 | 47.46128 | 9.25702 | 35885 ft | 455 kts | 67° |
| 2026-05-05 12:15 | 47.48756 | 9.33939 | 35889 ft | 455 kts | 68° |
| 2026-05-05 12:15 | 47.51416 | 9.42318 | 35891 ft | 454 kts | 68° |
| 2026-05-05 12:16 | 47.53999 | 9.50834 | 35892 ft | 453 kts | 69° |
| 2026-05-05 12:16 | 47.56479 | 9.59291 | 35894 ft | 453 kts | 69° |
| 2026-05-05 12:17 | 47.58990 | 9.67854 | 35870 ft | 454 kts | 69° |
| 2026-05-05 12:17 | 47.61524 | 9.76419 | 35885 ft | 454 kts | 69° |
| 2026-05-05 12:18 | 47.64033 | 9.84916 | 35884 ft | 453 kts | 69° |
| 2026-05-05 12:18 | 47.66523 | 9.93417 | 35886 ft | 453 kts | 69° |
| 2026-05-05 12:19 | 47.69030 | 10.01980 | 35874 ft | 452 kts | 69° |
| 2026-05-05 12:19 | 47.70979 | 10.08655 | 35872 ft | 452 kts | 69° |
| 2026-05-05 12:20 | 47.73476 | 10.17233 | 35743 ft | 456 kts | 69° |
| 2026-05-05 12:20 | 47.74732 | 10.21562 | 35481 ft | 456 kts | 70° |
| 2026-05-05 12:20 | 47.75961 | 10.25819 | 35241 ft | 454 kts | 70° |
| 2026-05-05 12:21 | 47.77188 | 10.30084 | 34884 ft | 451 kts | 70° |
| 2026-05-05 12:21 | 47.78419 | 10.34364 | 34314 ft | 449 kts | 70° |
| 2026-05-05 12:21 | 47.79640 | 10.38616 | 33746 ft | 448 kts | 70° |
| 2026-05-05 12:21 | 47.80861 | 10.42871 | 33177 ft | 446 kts | 71° |
| 2026-05-05 12:22 | 47.82071 | 10.47091 | 32648 ft | 443 kts | 71° |
| 2026-05-05 12:22 | 47.83226 | 10.51123 | 32134 ft | 440 kts | 71° |
| 2026-05-05 12:22 | 47.84422 | 10.55300 | 31602 ft | 437 kts | 71° |
| 2026-05-05 12:22 | 47.85611 | 10.59456 | 31084 ft | 435 kts | 71° |
| 2026-05-05 12:23 | 47.86789 | 10.63589 | 30557 ft | 432 kts | 71° |
| 2026-05-05 12:23 | 47.87940 | 10.67634 | 30084 ft | 428 kts | 71° |
| 2026-05-05 12:23 | 47.89113 | 10.71758 | 29538 ft | 426 kts | 71° |
| 2026-05-05 12:23 | 47.90033 | 10.75007 | 29165 ft | 421 kts | 71° |
| 2026-05-05 12:24 | 47.91066 | 10.78665 | 28743 ft | 417 kts | 71° |
| 2026-05-05 12:24 | 47.92184 | 10.82630 | 28280 ft | 413 kts | 71° |
| 2026-05-05 12:24 | 47.93291 | 10.86558 | 27825 ft | 409 kts | 71° |
| 2026-05-05 12:24 | 47.94400 | 10.90499 | 27354 ft | 406 kts | 71° |
| 2026-05-05 12:25 | 47.95468 | 10.94295 | 26901 ft | 403 kts | 71° |
| 2026-05-05 12:25 | 47.96525 | 10.98057 | 26435 ft | 400 kts | 71° |
| 2026-05-05 12:25 | 47.97600 | 11.01895 | 25845 ft | 401 kts | 71° |
| 2026-05-05 12:25 | 47.98676 | 11.05744 | 25278 ft | 402 kts | 71° |
| 2026-05-05 12:26 | 47.99741 | 11.09560 | 24732 ft | 402 kts | 71° |
| 2026-05-05 12:26 | 48.00810 | 11.13396 | 24161 ft | 402 kts | 70° |
| 2026-05-05 12:26 | 48.01885 | 11.17251 | 23612 ft | 401 kts | 70° |
| 2026-05-05 12:26 | 48.02924 | 11.20985 | 23047 ft | 401 kts | 70° |
| 2026-05-05 12:27 | 48.03991 | 11.24831 | 22422 ft | 401 kts | 70° |
| 2026-05-05 12:27 | 48.05053 | 11.28677 | 21831 ft | 400 kts | 70° |
| 2026-05-05 12:27 | 48.06195 | 11.32476 | 21236 ft | 402 kts | 63° |
| 2026-05-05 12:27 | 48.07820 | 11.35899 | 20646 ft | 405 kts | 50° |
| 2026-05-05 12:28 | 48.09833 | 11.38645 | 20099 ft | 406 kts | 40° |
| 2026-05-05 12:28 | 48.12026 | 11.41263 | 19536 ft | 405 kts | 40° |
| 2026-05-05 12:28 | 48.13925 | 11.43538 | 19041 ft | 404 kts | 40° |
| 2026-05-05 12:28 | 48.15402 | 11.45313 | 18683 ft | 403 kts | 40° |
| 2026-05-05 12:29 | 48.17584 | 11.47941 | 18144 ft | 402 kts | 40° |
| 2026-05-05 12:29 | 48.19755 | 11.50567 | 17533 ft | 400 kts | 40° |
| 2026-05-05 12:29 | 48.21806 | 11.53359 | 16901 ft | 397 kts | 51° |
| 2026-05-05 12:29 | 48.23321 | 11.56767 | 16315 ft | 391 kts | 66° |
| 2026-05-05 12:30 | 48.24191 | 11.60601 | 15730 ft | 386 kts | 81° |
| 2026-05-05 12:30 | 48.24537 | 11.64526 | 15143 ft | 373 kts | 85° |
| 2026-05-05 12:30 | 48.24814 | 11.68101 | 14606 ft | 359 kts | 85° |
| 2026-05-05 12:30 | 48.25097 | 11.71753 | 14052 ft | 346 kts | 85° |
| 2026-05-05 12:31 | 48.25371 | 11.75288 | 13503 ft | 335 kts | 85° |
| 2026-05-05 12:31 | 48.25635 | 11.78707 | 12897 ft | 326 kts | 85° |
| 2026-05-05 12:31 | 48.25889 | 11.82038 | 12303 ft | 317 kts | 85° |
| 2026-05-05 12:31 | 48.26136 | 11.85286 | 11719 ft | 310 kts | 85° |
| 2026-05-05 12:32 | 48.26377 | 11.88463 | 11144 ft | 303 kts | 85° |
| 2026-05-05 12:32 | 48.26574 | 11.91065 | 10672 ft | 299 kts | 85° |
| 2026-05-05 12:32 | 48.26810 | 11.94147 | 10116 ft | 296 kts | 85° |
| 2026-05-05 12:32 | 48.27042 | 11.97197 | 9548 ft | 293 kts | 85° |
| 2026-05-05 12:33 | 48.27271 | 12.00237 | 8953 ft | 292 kts | 85° |
| 2026-05-05 12:33 | 48.27499 | 12.03261 | 8373 ft | 291 kts | 84° |
| 2026-05-05 12:33 | 48.28036 | 12.06166 | 7788 ft | 291 kts | 60° |
| 2026-05-05 12:33 | 48.29386 | 12.08325 | 7225 ft | 283 kts | 31° |
| 2026-05-05 12:34 | 48.31111 | 12.09249 | 6683 ft | 276 kts | 5° |
| 2026-05-05 12:34 | 48.32957 | 12.08980 | 6151 ft | 268 kts | 345° |
| 2026-05-05 12:34 | 48.34695 | 12.08063 | 5567 ft | 262 kts | 326° |
| 2026-05-05 12:34 | 48.35902 | 12.06102 | 4918 ft | 257 kts | 294° |
| 2026-05-05 12:35 | 48.36214 | 12.03544 | 4493 ft | 247 kts | 265° |
| 2026-05-05 12:35 | 48.36028 | 12.00995 | 4136 ft | 241 kts | 263° |
| 2026-05-05 12:35 | 48.35843 | 11.98553 | 3829 ft | 230 kts | 263° |
| 2026-05-05 12:35 | 48.35670 | 11.96244 | 3538 ft | 213 kts | 263° |
| 2026-05-05 12:36 | 48.35510 | 11.94112 | 3302 ft | 199 kts | 263° |
| 2026-05-05 12:36 | 48.35360 | 11.92111 | 3036 ft | 187 kts | 263° |
| 2026-05-05 12:36 | 48.35219 | 11.90237 | 2783 ft | 173 kts | 263° |
| 2026-05-05 12:36 | 48.35090 | 11.88526 | 2593 ft | 157 kts | 263° |
| 2026-05-05 12:37 | 48.34972 | 11.86962 | 2380 ft | 146 kts | 264° |
| 2026-05-05 12:37 | 48.34858 | 11.85462 | 2178 ft | 143 kts | 264° |
| 2026-05-05 12:37 | 48.34749 | 11.83981 | 1953 ft | 142 kts | 264° |
| 2026-05-05 12:37 | 48.34636 | 11.82508 | 1750 ft | 142 kts | 265° |
| 2026-05-05 12:38 | 48.34526 | 11.81033 | 1586 ft | 141 kts | 264° |
| 2026-05-05 12:38 | 48.34415 | 11.79593 | 1483 ft | 128 kts | 263° |
| 2026-05-05 12:38 | 48.34354 | 11.78697 | 1485 ft | 45 kts | 275° |
| 2026-05-05 12:38 | 48.34435 | 11.78397 | 1484 ft | 26 kts | 294° |
| 2026-05-05 12:39 | 48.34498 | 11.78177 | 1474 ft | 21 kts | 298° |
| 2026-05-05 12:39 | 48.34593 | 11.78076 | 1481 ft | 17 kts | 352° |
| 2026-05-05 12:39 | 48.34679 | 11.78120 | 1483 ft | 14 kts | 64° |
| 2026-05-05 12:39 | 48.34692 | 11.78279 | 1485 ft | 16 kts | 83° |
| 2026-05-05 12:40 | 48.34706 | 11.78461 | 1485 ft | 19 kts | 83° |
| 2026-05-05 12:40 | 48.34723 | 11.78666 | 1485 ft | 21 kts | 84° |
| 2026-05-05 12:40 | 48.34740 | 11.78894 | 1480 ft | 23 kts | 83° |
| 2026-05-05 12:40 | 48.34760 | 11.79141 | 1485 ft | 25 kts | 83° |
| 2026-05-05 12:41 | 48.34781 | 11.79409 | 1485 ft | 27 kts | 84° |
| 2026-05-05 12:41 | 48.34835 | 11.79561 | 1483 ft | 13 kts | 352° |
| 2026-05-05 12:41 | 48.34889 | 11.79549 | 1482 ft | 7 kts | 356° |
| 2026-05-05 12:41 | 48.34933 | 11.79544 | 1478 ft | 6 kts | 355° |
| 2026-05-05 12:42 | 48.34970 | 11.79539 | 1485 ft | 5 kts | 354° |
| 2026-05-05 12:42 | 48.35008 | 11.79532 | 1483 ft | 8 kts | 353° |
| 2026-05-05 12:42 | 48.35077 | 11.79518 | 1485 ft | 11 kts | 349° |
| 2026-05-05 12:42 | 48.35104 | 11.79434 | 1485 ft | 9 kts | 267° |
| 2026-05-05 12:43 | 48.35098 | 11.79364 | 1477 ft | 2 kts | 263° |
| 2026-05-05 12:43 | 48.35098 | 11.79360 | 1485 ft | 0 kts | 263° |